Time;durP1;ratioP1;P1;durP2;ratioP2;P2;SDS_P1;SDS_P2;PMS_P1;PMS_P2;Temp;Humidity;BMP_temperature;BMP_pressure;BME280_temperature;BME280_humidity;BME280_pressure;Samples;Min_cycle;Max_cycle;Signal;HPM_P1;HPM_P2
2023/01/12 00:02:03;;;;;;;16.13;2.50;;;8.00;99.90;;;;;;5007808;28;20196;-60
2023/01/12 00:04:32;;;;;;;15.70;2.40;;;8.00;99.90;;;;;;5007633;28;20080;-60
2023/01/12 00:06:58;;;;;;;13.90;2.35;;;8.00;99.90;;;;;;5007750;28;20038;-60
2023/01/12 00:09:25;;;;;;;17.30;3.33;;;8.00;99.90;;;;;;5006434;28;20525;-60
2023/01/12 00:11:51;;;;;;;14.53;2.77;;;8.10;99.90;;;;;;5006388;28;20523;-60
2023/01/12 00:14:16;;;;;;;14.70;2.97;;;8.10;99.90;;;;;;5009016;28;20113;-60
2023/01/12 00:16:42;;;;;;;13.37;3.57;;;8.20;99.90;;;;;;5007866;28;20070;-60
2023/01/12 00:19:19;;;;;;;19.63;4.03;;;8.20;99.90;;;;;;5006259;28;20030;-60
2023/01/12 00:21:55;;;;;;;15.77;3.30;;;8.20;99.90;;;;;;5005972;28;20025;-60
2023/01/12 00:24:22;;;;;;;18.43;4.50;;;8.20;99.90;;;;;;5007445;28;20656;-60
2023/01/12 00:26:48;;;;;;;15.90;3.00;;;8.30;99.90;;;;;;5006311;28;20033;-59
2023/01/12 00:29:15;;;;;;;15.47;3.33;;;8.20;99.90;;;;;;5004684;28;20414;-59
2023/01/12 00:31:41;;;;;;;10.37;3.00;;;8.20;99.90;;;;;;5007102;28;20034;-59
2023/01/12 00:34:06;;;;;;;15.80;2.40;;;8.20;99.90;;;;;;5007606;28;20486;-60
2023/01/12 00:36:32;;;;;;;15.30;2.67;;;8.20;99.90;;;;;;5009152;28;20034;-60
2023/01/12 00:38:58;;;;;;;17.50;3.03;;;8.20;99.90;;;;;;5006114;28;20112;-59
2023/01/12 00:46:52;;;;;;;12.20;2.03;;;8.20;99.90;;;;;;5007048;28;20076;-60
2023/01/12 00:49:18;;;;;;;13.73;2.10;;;8.30;99.90;;;;;;5006126;28;20065;-61
2023/01/12 00:51:44;;;;;;;10.47;2.73;;;8.30;99.90;;;;;;5006988;28;20541;-60
2023/01/12 00:54:10;;;;;;;18.37;3.90;;;8.30;99.90;;;;;;5007240;28;20037;-59
2023/01/12 00:56:37;;;;;;;16.70;4.00;;;8.40;99.90;;;;;;5005726;28;20042;-60
2023/01/12 00:59:04;;;;;;;19.30;4.80;;;8.30;99.90;;;;;;5005269;28;20517;-60
2023/01/12 01:01:31;;;;;;;14.20;5.17;;;8.40;99.90;;;;;;5006705;28;20029;-59
2023/01/12 01:03:57;;;;;;;22.73;6.13;;;8.40;99.90;;;;;;5006940;28;20080;-59
2023/01/12 01:06:22;;;;;;;19.00;6.17;;;8.40;99.90;;;;;;5007971;28;20033;-60
2023/01/12 01:08:49;;;;;;;21.67;6.40;;;8.40;99.90;;;;;;5005458;28;20030;-59
2023/01/12 01:11:14;;;;;;;19.93;6.53;;;8.50;99.90;;;;;;5006483;28;20030;-59
2023/01/12 01:13:44;;;;;;;18.07;5.10;;;8.50;99.90;;;;;;5005641;28;20187;-59
2023/01/12 01:16:12;;;;;;;25.00;6.95;;;8.60;99.90;;;;;;5007305;28;20045;-60
2023/01/12 01:18:38;;;;;;;21.23;5.90;;;8.60;99.90;;;;;;5004632;28;20455;-59
2023/01/12 01:21:06;;;;;;;20.23;5.47;;;8.60;99.90;;;;;;5006865;28;20030;-59
2023/01/12 01:23:34;;;;;;;18.60;5.10;;;8.60;99.90;;;;;;5006352;28;20103;-58
2023/01/12 01:26:14;;;;;;;17.67;5.70;;;8.60;99.90;;;;;;5006723;28;20175;-58
2023/01/12 01:28:40;;;;;;;19.60;5.40;;;8.70;99.90;;;;;;5004089;28;20045;-59
2023/01/12 01:31:16;;;;;;;17.33;4.90;;;8.70;99.90;;;;;;5008218;28;20498;-59
2023/01/12 01:33:42;;;;;;;19.07;5.23;;;8.60;99.90;;;;;;5006558;28;20371;-58
2023/01/12 01:36:08;;;;;;;18.70;4.87;;;8.70;99.90;;;;;;5006940;28;20461;-59
2023/01/12 01:38:34;;;;;;;19.00;5.40;;;8.70;99.90;;;;;;5004350;28;20367;-58
2023/01/12 01:41:00;;;;;;;18.67;5.57;;;8.70;99.90;;;;;;5006166;28;20030;-58
2023/01/12 01:43:28;;;;;;;22.43;6.23;;;8.70;99.90;;;;;;5005274;28;20080;-59
2023/01/12 01:46:02;;;;;;;25.77;5.87;;;8.80;99.90;;;;;;5006745;28;20108;-59
2023/01/12 01:48:32;;;;;;;26.67;6.83;;;8.80;99.90;;;;;;5004780;28;20069;-59
2023/01/12 01:51:08;;;;;;;16.07;4.60;;;8.80;99.90;;;;;;5006225;28;20056;-59
2023/01/12 01:53:36;;;;;;;15.60;4.90;;;8.80;99.90;;;;;;5006884;28;20399;-59
2023/01/12 01:56:26;;;;;;;20.23;5.57;;;8.80;99.90;;;;;;5007079;28;20041;-58
2023/01/12 01:58:55;;;;;;;20.37;5.43;;;8.80;99.90;;;;;;5002830;28;20061;-59
2023/01/12 02:01:21;;;;;;;21.52;4.63;;;8.90;99.90;;;;;;5004838;28;20393;-59
2023/01/12 02:03:47;;;;;;;17.20;4.80;;;8.90;99.90;;;;;;5007508;28;20049;-59
2023/01/12 02:06:14;;;;;;;15.43;3.93;;;8.90;99.90;;;;;;5005586;28;20470;-59
2023/01/12 02:08:43;;;;;;;15.77;3.87;;;8.90;99.90;;;;;;5005253;28;20180;-59
2023/01/12 02:16:19;;;;;;;18.38;3.78;;;8.90;99.90;;;;;;5006311;28;20380;-59
2023/01/12 02:17:05;;;;;;;16.20;3.30;;;8.90;99.90;;;;;;5005810;28;20065;-59
2023/01/12 02:19:58;;;;;;;15.77;2.73;;;8.90;99.90;;;;;;5012506;28;20034;-59
2023/01/12 02:22:54;;;;;;;13.00;2.57;;;8.90;99.90;;;;;;5005980;28;20034;-59
2023/01/12 02:25:44;;;;;;;17.00;2.27;;;9.00;99.90;;;;;;5006472;28;20077;-59
2023/01/12 02:28:34;;;;;;;12.03;2.43;;;9.00;99.90;;;;;;5004162;28;20375;-59
2023/01/12 02:31:35;;;;;;;18.10;2.60;;;9.00;99.90;;;;;;5008917;28;20060;-60
2023/01/12 02:34:30;;;;;;;17.73;2.50;;;9.00;99.90;;;;;;5010195;28;20050;-58
2023/01/12 02:37:20;;;;;;;11.60;1.90;;;9.00;99.90;;;;;;5008643;28;20391;-60
2023/01/12 02:39:58;;;;;;;17.53;2.60;;;9.00;99.90;;;;;;5008433;28;20100;-59
2023/01/12 02:42:40;;;;;;;20.90;2.80;;;9.00;99.90;;;;;;5008302;28;20180;-60
2023/01/12 02:45:38;;;;;;;16.23;3.00;;;8.90;99.90;;;;;;5007952;28;20041;-59
2023/01/12 02:48:21;;;;;;;15.90;2.97;;;8.80;99.90;;;;;;5009039;28;20399;-59
2023/01/12 02:51:32;;;;;;;12.67;2.30;;;8.70;99.90;;;;;;5009764;28;20029;-60
2023/01/12 02:54:05;;;;;;;16.63;2.90;;;8.70;99.90;;;;;;4987688;28;20034;-60
2023/01/12 02:56:39;;;;;;;10.60;2.60;;;8.70;99.90;;;;;;5007826;28;20038;-59
2023/01/12 02:59:14;;;;;;;18.87;3.37;;;8.70;99.90;;;;;;5008219;28;20022;-58
2023/01/12 03:01:43;;;;;;;17.80;2.53;;;8.70;99.90;;;;;;5008396;28;20034;-58
2023/01/12 03:04:10;;;;;;;19.35;2.63;;;8.70;99.90;;;;;;5009433;28;20098;-59
2023/01/12 03:06:46;;;;;;;14.33;3.00;;;8.60;99.90;;;;;;5008931;28;20057;-60
2023/01/12 03:09:17;;;;;;;19.47;2.50;;;8.60;99.90;;;;;;5007980;28;20052;-59
2023/01/12 03:11:45;;;;;;;21.10;2.70;;;8.50;99.90;;;;;;5007215;28;20156;-59
2023/01/12 03:14:12;;;;;;;18.10;2.70;;;8.50;99.90;;;;;;5023982;22;20022;-61
2023/01/12 03:16:39;;;;;;;19.10;3.33;;;8.50;99.90;;;;;;5027448;28;20029;-61
2023/01/12 03:19:25;;;;;;;16.27;2.73;;;8.40;99.90;;;;;;5027377;28;20025;-61
2023/01/12 03:21:56;;;;;;;19.40;2.67;;;8.50;99.90;;;;;;5027833;28;20084;-61
2023/01/12 03:24:28;;;;;;;15.53;3.30;;;8.50;99.90;;;;;;5030189;28;20021;-61
2023/01/12 03:27:11;;;;;;;20.67;2.67;;;8.50;99.90;;;;;;5026932;28;20037;-61
2023/01/12 03:29:45;;;;;;;21.60;2.83;;;8.50;99.90;;;;;;5027133;28;20033;-61
2023/01/12 03:32:10;;;;;;;21.93;3.57;;;8.50;99.90;;;;;;5028214;28;20100;-61
2023/01/12 03:34:37;;;;;;;21.80;3.67;;;8.50;99.90;;;;;;5028841;28;20033;-61
2023/01/12 03:37:43;;;;;;;14.63;2.33;;;8.40;99.90;;;;;;5026324;28;20463;-61
2023/01/12 03:40:11;;;;;;;13.10;2.03;;;8.50;99.90;;;;;;5023673;28;20034;-61
2023/01/12 03:42:40;;;;;;;18.80;2.80;;;8.50;99.90;;;;;;5025083;28;20037;-61
2023/01/12 03:45:30;;;;;;;15.07;2.85;;;8.40;99.90;;;;;;5027796;28;20064;-61
2023/01/12 03:48:39;;;;;;;18.17;3.30;;;8.50;99.90;;;;;;5027370;28;20033;-61
2023/01/12 03:51:14;;;;;;;15.00;1.93;;;8.50;99.90;;;;;;4965111;28;20161;-61
2023/01/12 03:53:41;;;;;;;14.27;2.40;;;8.50;99.90;;;;;;4965526;28;20097;-61
2023/01/12 03:56:11;;;;;;;19.83;2.13;;;8.50;99.90;;;;;;4998683;28;20048;-61
2023/01/12 03:58:37;;;;;;;11.27;2.20;;;8.50;99.90;;;;;;5025076;28;20037;-61
2023/01/12 04:01:04;;;;;;;17.13;2.23;;;8.50;99.90;;;;;;5027408;28;20025;-61
2023/01/12 04:03:29;;;;;;;13.40;2.50;;;8.50;99.90;;;;;;5027144;28;20029;-61
2023/01/12 04:05:55;;;;;;;16.90;2.27;;;8.60;99.90;;;;;;5025637;28;20044;-61
2023/01/12 04:08:21;;;;;;;18.10;2.77;;;8.60;99.90;;;;;;5025688;28;20033;-61
2023/01/12 04:10:47;;;;;;;9.27;1.50;;;8.60;99.90;;;;;;5027331;28;20204;-61
2023/01/12 04:13:13;;;;;;;12.97;2.13;;;8.60;99.90;;;;;;5025840;28;20203;-61
2023/01/12 04:15:41;;;;;;;16.43;2.20;;;8.60;99.90;;;;;;5028977;28;20040;-61
2023/01/12 04:18:10;;;;;;;11.87;1.97;;;8.70;99.90;;;;;;5025167;28;20040;-61
2023/01/12 04:20:37;;;;;;;14.53;1.90;;;8.70;99.90;;;;;;5027234;28;20061;-61
2023/01/12 04:23:03;;;;;;;15.03;2.53;;;8.70;99.90;;;;;;5027044;28;20032;-61
2023/01/12 04:25:30;;;;;;;13.03;2.17;;;8.60;99.90;;;;;;5027631;28;20022;-61
2023/01/12 04:28:01;;;;;;;12.37;2.10;;;8.60;99.90;;;;;;5026001;28;20029;-61
2023/01/12 04:30:28;;;;;;;11.63;1.73;;;8.60;99.90;;;;;;5026107;28;20113;-61
2023/01/12 04:32:55;;;;;;;13.17;2.03;;;8.60;99.90;;;;;;5026961;28;20496;-61
2023/01/12 04:35:22;;;;;;;13.00;1.90;;;8.60;99.90;;;;;;5026413;28;20604;-61
2023/01/12 04:37:49;;;;;;;14.20;2.43;;;8.50;99.90;;;;;;5026012;28;20079;-61
2023/01/12 04:40:16;;;;;;;13.17;2.20;;;8.50;99.90;;;;;;5025263;28;20021;-61
2023/01/12 04:42:59;;;;;;;21.83;2.90;;;8.50;99.90;;;;;;5023856;28;20029;-61
2023/01/12 04:45:26;;;;;;;12.77;3.23;;;8.50;99.90;;;;;;5026277;28;20026;-61
2023/01/12 04:47:51;;;;;;;18.13;3.00;;;8.40;99.90;;;;;;5026222;28;20137;-61
2023/01/12 04:50:17;;;;;;;14.50;2.13;;;8.40;99.90;;;;;;5026405;28;20104;-61
2023/01/12 04:52:44;;;;;;;16.10;2.03;;;8.50;99.90;;;;;;5026206;28;20393;-61
2023/01/12 04:55:10;;;;;;;13.17;1.93;;;8.40;99.90;;;;;;5026744;28;20026;-61
2023/01/12 04:57:36;;;;;;;13.43;2.27;;;8.30;99.90;;;;;;5024147;28;20029;-60
2023/01/12 05:00:03;;;;;;;12.43;1.97;;;8.30;99.90;;;;;;5025328;28;20698;-60
2023/01/12 05:02:29;;;;;;;11.57;1.43;;;8.30;99.90;;;;;;5026041;28;20030;-60
2023/01/12 05:04:55;;;;;;;12.70;2.03;;;8.30;99.90;;;;;;5026712;28;20063;-60
2023/01/12 05:07:21;;;;;;;14.37;1.90;;;8.30;99.90;;;;;;5025439;28;20387;-60
2023/01/12 05:12:31;;;;;;;17.17;2.40;;;8.20;99.90;;;;;;5024225;28;20115;-60
2023/01/12 05:14:57;;;;;;;11.43;2.00;;;8.30;99.90;;;;;;5027994;28;20103;-60
2023/01/12 05:17:23;;;;;;;14.10;2.13;;;8.20;99.90;;;;;;5025453;28;20052;-60
2023/01/12 05:19:48;;;;;;;7.30;1.93;;;8.20;99.90;;;;;;5025791;28;20500;-60
2023/01/12 05:22:15;;;;;;;12.60;1.77;;;8.20;99.90;;;;;;5026010;28;20116;-60
2023/01/12 05:24:40;;;;;;;10.20;1.73;;;8.30;99.90;;;;;;5026848;28;20549;-60
2023/01/12 05:27:06;;;;;;;11.43;1.57;;;8.20;99.90;;;;;;5025208;28;20041;-60
2023/01/12 05:29:32;;;;;;;8.17;1.57;;;8.20;99.90;;;;;;5024542;28;20079;-60
2023/01/12 05:31:57;;;;;;;9.30;1.37;;;8.20;99.90;;;;;;5025047;28;20036;-60
2023/01/12 05:34:23;;;;;;;13.80;1.73;;;8.20;99.90;;;;;;5026213;28;20029;-61
2023/01/12 05:36:49;;;;;;;7.57;1.60;;;8.20;99.90;;;;;;5025247;28;20041;-61
2023/01/12 05:39:15;;;;;;;9.60;1.57;;;8.10;99.90;;;;;;5024701;28;20030;-61
2023/01/12 05:43:48;;;;;;;8.90;1.83;;;8.10;99.90;;;;;;5025319;28;20593;-61
2023/01/12 05:44:26;;;;;;;8.73;1.50;;;8.20;99.90;;;;;;5025861;28;20147;-61
2023/01/12 05:46:52;;;;;;;9.13;1.37;;;8.10;99.90;;;;;;5026735;28;20069;-61
2023/01/12 05:49:18;;;;;;;9.83;1.37;;;8.10;99.90;;;;;;5024230;28;20048;-61
2023/01/12 05:51:43;;;;;;;11.90;1.83;;;8.20;99.90;;;;;;5026516;28;20029;-62
2023/01/12 05:54:09;;;;;;;7.30;1.60;;;8.10;99.90;;;;;;5026032;28;20057;-62
2023/01/12 05:56:35;;;;;;;13.00;1.83;;;8.20;99.90;;;;;;5025515;28;20035;-63
2023/01/12 05:59:03;;;;;;;11.83;1.70;;;8.10;99.90;;;;;;5023078;28;20025;-63
2023/01/12 06:01:30;;;;;;;5.20;1.43;;;8.20;99.90;;;;;;5025442;28;20525;-63
2023/01/12 06:03:58;;;;;;;6.00;1.17;;;8.10;99.90;;;;;;5025914;28;20039;-63
2023/01/12 06:06:26;;;;;;;8.93;1.63;;;8.20;99.90;;;;;;5029824;28;20072;-66
2023/01/12 06:08:53;;;;;;;13.03;1.80;;;8.10;99.90;;;;;;5028080;28;20107;-66
2023/01/12 06:14:04;;;;;;;8.40;1.57;;;8.10;99.90;;;;;;5028144;28;20052;-68
2023/01/12 06:16:30;;;;;;;13.60;2.27;;;8.10;99.90;;;;;;5029007;28;20095;-69
2023/01/12 06:18:56;;;;;;;8.20;1.40;;;8.10;99.90;;;;;;5027808;28;20390;-69
2023/01/12 06:21:22;;;;;;;10.83;1.77;;;8.10;99.90;;;;;;5029015;28;20032;-68
2023/01/12 06:23:48;;;;;;;6.37;1.30;;;8.10;99.90;;;;;;5029291;28;20510;-68
2023/01/12 06:26:14;;;;;;;12.10;1.80;;;8.00;99.90;;;;;;5028995;28;20121;-69
2023/01/12 06:28:41;;;;;;;7.47;1.73;;;8.00;99.90;;;;;;5026853;28;20091;-69
2023/01/12 06:31:10;;;;;;;7.80;1.80;;;8.00;99.90;;;;;;5030582;28;20034;-66
2023/01/12 06:33:36;;;;;;;11.33;1.50;;;8.00;99.90;;;;;;5029240;28;20033;-66
2023/01/12 06:36:02;;;;;;;11.40;1.60;;;8.10;99.90;;;;;;5030558;28;20037;-66
2023/01/12 06:38:30;;;;;;;17.13;2.70;;;8.10;99.90;;;;;;5027529;28;20056;-65
2023/01/12 06:41:00;;;;;;;12.70;1.90;;;8.10;99.90;;;;;;5028229;28;20446;-71
2023/01/12 06:43:26;;;;;;;10.50;1.80;;;8.10;99.90;;;;;;5028027;28;20355;-71
2023/01/12 06:45:53;;;;;;;10.47;1.80;;;8.00;99.90;;;;;;5029469;28;20036;-71
2023/01/12 06:48:24;;;;;;;11.93;1.80;;;8.00;99.90;;;;;;5027477;28;20030;-71
2023/01/12 06:50:53;;;;;;;12.93;1.43;;;8.10;99.90;;;;;;5028988;28;20049;-70
2023/01/12 06:53:18;;;;;;;9.98;1.65;;;8.10;99.90;;;;;;5028134;28;20029;-72
2023/01/12 06:55:49;;;;;;;9.50;1.90;;;8.20;99.90;;;;;;5031323;28;20474;-70
2023/01/12 06:58:15;;;;;;;11.10;1.87;;;8.20;99.90;;;;;;5026388;28;20100;-71
2023/01/12 07:00:41;;;;;;;15.13;2.20;;;8.20;99.90;;;;;;5029571;28;20163;-73
2023/01/12 07:03:11;;;;;;;12.80;2.20;;;8.20;99.90;;;;;;5031966;28;20041;-68
2023/01/12 07:05:37;;;;;;;5.30;0.97;;;8.20;99.90;;;;;;5031918;28;20462;-67
2023/01/12 07:08:03;;;;;;;11.93;1.70;;;8.30;99.90;;;;;;5031517;28;20176;-68
2023/01/12 07:10:31;;;;;;;12.17;1.50;;;8.30;99.90;;;;;;5031485;28;20060;-67
2023/01/12 07:12:59;;;;;;;8.03;1.47;;;8.20;99.90;;;;;;5030192;28;20041;-73
2023/01/12 07:15:25;;;;;;;14.17;2.57;;;8.30;99.90;;;;;;5030437;28;20052;-73
2023/01/12 07:17:55;;;;;;;10.37;1.83;;;8.30;99.90;;;;;;5030173;28;20021;-73
2023/01/12 07:20:20;;;;;;;11.97;2.70;;;8.30;99.90;;;;;;5031137;28;20502;-64
2023/01/12 07:22:46;;;;;;;9.07;1.87;;;8.40;99.90;;;;;;5031067;28;20029;-61
2023/01/12 07:25:12;;;;;;;13.57;2.80;;;8.50;99.90;;;;;;5031407;28;20385;-61
2023/01/12 07:27:37;;;;;;;10.17;2.97;;;8.50;99.90;;;;;;5029616;28;20034;-61
2023/01/12 07:30:03;;;;;;;14.47;2.67;;;8.60;99.90;;;;;;5030923;28;20383;-60
2023/01/12 07:32:29;;;;;;;13.33;3.20;;;8.70;99.90;;;;;;5030773;28;20064;-60
2023/01/12 07:34:55;;;;;;;12.30;2.83;;;8.70;99.90;;;;;;5031042;28;20061;-73
2023/01/12 07:37:20;;;;;;;14.90;3.30;;;8.70;99.90;;;;;;5030460;28;20036;-71
2023/01/12 07:39:46;;;;;;;14.67;4.07;;;8.70;99.90;;;;;;5031203;28;20044;-65
2023/01/12 07:42:24;;;;;;;10.23;2.80;;;8.70;99.90;;;;;;5027024;28;20398;-66
2023/01/12 07:44:51;;;;;;;14.55;3.58;;;8.70;99.90;;;;;;5031971;28;20029;-66
2023/01/12 07:47:16;;;;;;;11.37;3.40;;;8.70;99.90;;;;;;5031864;28;20120;-66
2023/01/12 07:49:42;;;;;;;18.33;4.83;;;8.70;99.90;;;;;;5031914;28;20112;-65
2023/01/12 07:52:10;;;;;;;16.87;4.57;;;8.70;99.90;;;;;;5032383;28;20307;-65
2023/01/12 07:54:36;;;;;;;13.17;3.17;;;8.80;99.90;;;;;;5032155;28;20037;-66
2023/01/12 07:57:03;;;;;;;10.30;2.83;;;8.80;99.90;;;;;;5031630;28;20402;-67
2023/01/12 07:59:28;;;;;;;13.63;3.83;;;8.90;99.90;;;;;;5031760;28;20505;-66
2023/01/12 08:01:54;;;;;;;13.43;3.87;;;9.00;99.90;;;;;;5031826;28;20205;-66
2023/01/12 08:04:21;;;;;;;11.03;3.70;;;9.00;99.90;;;;;;5031817;28;20025;-67
2023/01/12 08:06:47;;;;;;;14.50;3.27;;;9.00;99.90;;;;;;5031736;28;20041;-66
2023/01/12 08:09:12;;;;;;;19.87;5.80;;;9.00;99.90;;;;;;5031569;28;20036;-67
2023/01/12 08:11:38;;;;;;;17.53;4.60;;;9.00;99.90;;;;;;5031714;28;20033;-67
2023/01/12 08:14:04;;;;;;;10.30;2.93;;;9.10;99.90;;;;;;5031449;28;20037;-68
2023/01/12 08:16:36;;;;;;;14.80;3.77;;;9.10;99.90;;;;;;5031297;28;20080;-66
2023/01/12 08:19:10;;;;;;;16.73;4.37;;;9.10;99.90;;;;;;5031489;28;20029;-66
2023/01/12 08:21:44;;;;;;;12.63;4.10;;;9.10;99.90;;;;;;5031732;28;20036;-67
2023/01/12 08:24:19;;;;;;;10.10;3.83;;;9.10;99.90;;;;;;5031525;28;20030;-66
2023/01/12 08:26:47;;;;;;;8.40;3.30;;;9.20;99.90;;;;;;5031196;28;20044;-67
2023/01/12 08:29:17;;;;;;;13.37;4.00;;;9.20;99.90;;;;;;5031343;28;20112;-67
2023/01/12 08:31:43;;;;;;;8.33;2.67;;;9.10;99.90;;;;;;5031626;28;20044;-67
2023/01/12 08:34:09;;;;;;;10.77;3.30;;;9.20;99.90;;;;;;5031510;28;20375;-68
2023/01/12 08:36:36;;;;;;;9.80;3.30;;;9.20;99.90;;;;;;5031179;28;20041;-67
2023/01/12 08:39:03;;;;;;;13.67;4.87;;;9.20;99.90;;;;;;5031073;28;20554;-67
2023/01/12 08:41:32;;;;;;;11.17;4.10;;;9.30;99.90;;;;;;5031036;28;20060;-67
2023/01/12 08:44:02;;;;;;;;;;;9.20;99.90;;;;;;5031645;28;20025;-67
2023/01/12 08:46:39;;;;;;;12.87;3.67;;;9.40;99.90;;;;;;5031018;28;19916;-67
2023/01/12 08:49:10;;;;;;;9.93;3.33;;;9.30;99.90;;;;;;5030998;28;20033;-67
2023/01/12 08:51:38;;;;;;;11.07;2.70;;;9.40;99.90;;;;;;5030961;28;20508;-67
2023/01/12 08:54:05;;;;;;;13.77;3.20;;;9.40;99.90;;;;;;5031386;28;20037;-72
2023/01/12 08:56:31;;;;;;;7.87;2.00;;;9.40;99.90;;;;;;5030822;28;20040;-72
2023/01/12 08:58:57;;;;;;;8.93;1.93;;;9.50;99.90;;;;;;5029496;28;20478;-71
2023/01/12 09:01:23;;;;;;;7.37;1.90;;;9.50;99.90;;;;;;5031020;28;20036;-73
2023/01/12 09:03:49;;;;;;;5.63;1.40;;;9.50;99.90;;;;;;5031034;28;20466;-71
2023/01/12 09:06:22;;;;;;;7.90;1.73;;;9.60;99.90;;;;;;5030783;28;20030;-73
2023/01/12 09:08:56;;;;;;;6.53;1.60;;;9.50;99.90;;;;;;5030862;28;20415;-69
2023/01/12 09:11:23;;;;;;;6.53;1.50;;;9.60;99.90;;;;;;5030639;28;20037;-69
2023/01/12 09:13:49;;;;;;;8.70;1.90;;;9.60;99.90;;;;;;5045855;28;20036;-68
2023/01/12 09:16:17;;;;;;;7.93;1.67;;;9.60;99.90;;;;;;5014477;22;20046;-54
2023/01/12 09:18:44;;;;;;;5.57;1.40;;;9.70;99.90;;;;;;4990775;28;20034;-55
2023/01/12 09:21:15;;;;;;;5.60;1.80;;;9.70;99.90;;;;;;4991181;28;20520;-55
2023/01/12 09:23:42;;;;;;;7.27;1.60;;;9.70;99.90;;;;;;4989997;28;20026;-55
2023/01/12 09:26:14;;;;;;;6.30;1.37;;;9.80;99.90;;;;;;4991331;28;20165;-55
2023/01/12 09:28:41;;;;;;;4.57;0.90;;;9.70;99.90;;;;;;4991068;28;20042;-57
2023/01/12 09:31:10;;;;;;;3.03;0.90;;;9.80;99.90;;;;;;4991239;28;20034;-56
2023/01/12 09:33:38;;;;;;;5.28;1.30;;;9.80;99.90;;;;;;4991241;28;20038;-52
2023/01/12 09:36:12;;;;;;;4.40;0.80;;;9.80;99.90;;;;;;4991013;28;20038;-54
2023/01/12 09:38:40;;;;;;;6.33;1.33;;;9.80;99.90;;;;;;4990517;28;20054;-53
2023/01/12 09:47:35;;;;;;;6.07;1.33;;;9.90;99.90;;;;;;4991220;28;20038;-54
2023/01/12 09:50:08;;;;;;;4.90;1.37;;;9.90;99.90;;;;;;4990825;28;20034;-54
2023/01/12 09:52:48;;;;;;;4.77;1.03;;;10.00;99.90;;;;;;4989857;28;20436;-55
2023/01/12 09:55:22;;;;;;;6.00;1.03;;;10.00;99.90;;;;;;4990920;28;20080;-52
2023/01/12 09:58:06;;;;;;;5.63;1.10;;;10.00;99.90;;;;;;4990699;28;20031;-56
2023/01/12 10:00:32;;;;;;;3.87;0.97;;;10.00;99.90;;;;;;4990842;28;20307;-53
2023/01/12 10:03:08;;;;;;;3.60;0.77;;;10.10;99.90;;;;;;4990938;28;20038;-50
2023/01/12 10:05:41;;;;;;;2.93;0.70;;;10.10;99.90;;;;;;4990748;28;20031;-52
2023/01/12 10:08:36;;;;;;;2.47;0.70;;;10.20;99.90;;;;;;4990638;28;20054;-54
2023/01/12 10:11:23;;;;;;;3.17;0.80;;;10.20;99.90;;;;;;4986741;28;20035;-57
2023/01/12 10:13:55;;;;;;;5.33;0.77;;;10.20;99.90;;;;;;4990929;28;20472;-56
2023/01/12 10:16:45;;;;;;;4.83;0.90;;;10.20;99.90;;;;;;4990470;28;20037;-55
2023/01/12 10:19:21;;;;;;;3.13;0.80;;;10.30;99.90;;;;;;4990582;28;20583;-55
2023/01/12 10:21:49;;;;;;;5.37;1.03;;;10.30;99.90;;;;;;4990707;28;20034;-54
2023/01/12 10:24:20;;;;;;;6.47;1.00;;;10.30;99.90;;;;;;4990646;28;20483;-51
2023/01/12 10:26:55;;;;;;;5.37;0.90;;;10.40;99.90;;;;;;4990543;28;20496;-55
2023/01/12 10:29:21;;;;;;;4.97;1.00;;;10.30;99.90;;;;;;4990611;28;20487;-54
2023/01/12 10:31:46;;;;;;;7.73;1.23;;;10.30;99.90;;;;;;4990668;28;20026;-57
2023/01/12 10:34:12;;;;;;;5.83;1.00;;;10.30;99.90;;;;;;4990662;28;20030;-55
2023/01/12 10:36:48;;;;;;;2.40;0.80;;;10.30;99.90;;;;;;4990348;28;20030;-55
2023/01/12 10:39:32;;;;;;;8.03;1.20;;;10.30;99.90;;;;;;4990537;28;20471;-56
2023/01/12 10:45:19;;;;;;;4.50;1.00;;;10.30;99.90;;;;;;4990553;28;20558;-54
2023/01/12 10:47:46;;;;;;;5.97;1.23;;;10.30;99.90;;;;;;4990418;28;20049;-54
2023/01/12 10:50:26;;;;;;;5.50;1.00;;;10.30;99.90;;;;;;4990311;28;20116;-55
2023/01/12 10:53:00;;;;;;;5.70;1.10;;;10.30;99.90;;;;;;4993452;28;20047;-54
2023/01/12 10:55:30;;;;;;;6.57;1.07;;;10.30;99.90;;;;;;4993911;28;20037;-54
2023/01/12 10:57:56;;;;;;;4.90;1.00;;;10.30;99.90;;;;;;4993721;28;20423;-56
2023/01/12 11:00:25;;;;;;;5.13;1.50;;;10.30;99.90;;;;;;4993825;28;20125;-50
2023/01/12 11:02:51;;;;;;;5.97;1.30;;;10.30;99.90;;;;;;4993896;28;20061;-52
2023/01/12 11:05:37;;;;;;;3.33;1.20;;;10.30;99.90;;;;;;4993650;28;20026;-53
2023/01/12 11:08:35;;;;;;;3.70;0.97;;;10.30;99.90;;;;;;4993696;28;20026;-54
2023/01/12 11:11:15;;;;;;;2.80;0.90;;;10.40;99.90;;;;;;4981660;28;20038;-54
2023/01/12 11:13:41;;;;;;;3.87;1.20;;;10.40;99.90;;;;;;4993654;28;20110;-54
2023/01/12 11:16:31;;;;;;;7.63;1.10;;;10.50;99.90;;;;;;4993413;28;20117;-55
2023/01/12 11:19:09;;;;;;;6.23;1.00;;;10.50;99.90;;;;;;4993596;28;20438;-56
2023/01/12 11:21:39;;;;;;;6.07;1.30;;;10.60;99.90;;;;;;4993547;28;20034;-54
2023/01/12 11:24:14;;;;;;;3.97;0.80;;;10.60;99.90;;;;;;4993517;28;20030;-54
2023/01/12 11:26:49;;;;;;;4.40;1.17;;;10.60;99.90;;;;;;4993148;28;20034;-54
2023/01/12 11:29:23;;;;;;;4.73;1.17;;;10.60;99.90;;;;;;4993102;28;20074;-55
2023/01/12 11:31:52;;;;;;;4.00;0.90;;;10.70;99.90;;;;;;4993458;28;20298;-54
2023/01/12 11:34:22;;;;;;;5.55;1.20;;;10.70;99.90;;;;;;4993096;28;20033;-54
2023/01/12 11:36:54;;;;;;;4.63;0.90;;;10.60;99.90;;;;;;4992844;28;20129;-53
2023/01/12 11:39:23;;;;;;;3.60;0.90;;;10.50;99.90;;;;;;4993141;28;20034;-54
2023/01/12 11:45:00;;;;;;;7.23;1.60;;;10.60;99.90;;;;;;4993103;28;20033;-54
2023/01/12 11:47:57;;;;;;;7.57;2.20;;;10.60;99.90;;;;;;4992811;28;20031;-55
2023/01/12 11:50:28;;;;;;;5.47;1.70;;;10.70;99.90;;;;;;4988000;28;20054;-53
2023/01/12 11:52:56;;;;;;;6.60;1.30;;;10.70;99.90;;;;;;4993094;28;20467;-53
2023/01/12 11:55:49;;;;;;;6.63;1.90;;;10.60;99.90;;;;;;4992766;28;20487;-54
2023/01/12 11:58:28;;;;;;;3.83;1.37;;;10.60;99.90;;;;;;4989688;28;20057;-54
2023/01/12 12:01:00;;;;;;;6.82;1.25;;;10.60;99.90;;;;;;4992639;28;20034;-55
2023/01/12 12:03:54;;;;;;;4.40;1.40;;;10.60;99.90;;;;;;4992219;28;20041;-54
2023/01/12 12:06:46;;;;;;;6.10;1.43;;;10.60;99.90;;;;;;4992371;28;20026;-55
2023/01/12 12:09:35;;;;;;;9.40;1.43;;;10.50;99.90;;;;;;4991142;28;20030;-53
2023/01/12 12:12:06;;;;;;;3.30;1.07;;;10.60;99.90;;;;;;4992511;28;20030;-54
2023/01/12 12:14:31;;;;;;;7.97;1.20;;;10.60;99.90;;;;;;4991143;28;20026;-56
2023/01/12 12:17:08;;;;;;;4.77;1.10;;;10.50;99.90;;;;;;4992126;28;20054;-56
2023/01/12 12:19:46;;;;;;;5.77;1.80;;;10.50;99.90;;;;;;4992203;28;20109;-55
2023/01/12 12:22:46;;;;;;;4.93;1.30;;;10.50;99.90;;;;;;4992143;28;20030;-53
2023/01/12 12:25:12;;;;;;;4.07;1.30;;;10.40;99.90;;;;;;4992415;28;20041;-51
2023/01/12 12:28:08;;;;;;;4.97;1.47;;;10.40;99.90;;;;;;4992302;28;20416;-53
2023/01/12 12:30:59;;;;;;;6.90;2.03;;;10.40;99.90;;;;;;4991946;28;20041;-52
2023/01/12 12:33:35;;;;;;;4.97;1.70;;;10.40;99.90;;;;;;4992545;28;20097;-57
2023/01/12 12:36:15;;;;;;;9.10;2.03;;;10.40;99.90;;;;;;4992077;28;20041;-55
2023/01/12 12:38:59;;;;;;;8.03;1.60;;;10.40;99.90;;;;;;4990539;28;20077;-53
2023/01/12 12:47:56;;;;;;;5.83;1.70;;;10.50;99.90;;;;;;4991659;28;20461;-53
2023/01/12 12:50:45;;;;;;;10.53;2.87;;;10.60;99.90;;;;;;4991541;28;20085;-52
2023/01/12 12:53:20;;;;;;;7.45;2.13;;;10.60;99.90;;;;;;4991903;28;20022;-53
2023/01/12 12:55:48;;;;;;;6.37;2.73;;;10.60;99.90;;;;;;4991442;28;20483;-52
2023/01/12 12:58:20;;;;;;;5.60;1.98;;;10.60;99.90;;;;;;4991549;28;20030;-50
2023/01/12 13:00:47;;;;;;;2.63;1.13;;;10.70;99.90;;;;;;4991730;28;20031;-52
2023/01/12 13:03:43;;;;;;;4.17;1.33;;;10.70;99.90;;;;;;4991678;28;20530;-54
2023/01/12 13:06:13;;;;;;;6.43;1.60;;;10.70;99.90;;;;;;4991432;28;20422;-50
2023/01/12 13:08:39;;;;;;;6.80;1.80;;;10.70;99.90;;;;;;4991161;28;20038;-54
2023/01/12 13:11:06;;;;;;;6.10;2.10;;;10.70;99.90;;;;;;4991455;28;20034;-52
2023/01/12 13:13:35;;;;;;;5.13;1.80;;;10.70;99.90;;;;;;4991072;28;20157;-53
2023/01/12 13:16:19;;;;;;;6.75;2.67;;;10.70;99.90;;;;;;4991050;28;20061;-50
2023/01/12 13:18:47;;;;;;;7.63;2.57;;;10.70;99.90;;;;;;4991123;28;20046;-51
2023/01/12 13:21:25;;;;;;;5.80;2.00;;;10.70;99.90;;;;;;4991413;28;20034;-52
2023/01/12 13:23:52;;;;;;;4.67;2.27;;;10.70;99.90;;;;;;4991348;28;20391;-51
2023/01/12 13:26:35;;;;;;;6.63;1.93;;;10.80;99.90;;;;;;4991545;28;20037;-53
2023/01/12 13:29:20;;;;;;;4.93;1.93;;;10.70;99.90;;;;;;4990988;28;20415;-51
2023/01/12 13:31:45;;;;;;;4.63;1.30;;;10.70;99.90;;;;;;4991191;28;20038;-51
2023/01/12 13:34:36;;;;;;;5.93;1.60;;;10.70;99.90;;;;;;4991235;28;20073;-56
2023/01/12 13:37:32;;;;;;;6.20;1.57;;;10.80;99.90;;;;;;4990896;28;20030;-51
2023/01/12 13:40:10;;;;;;;9.70;2.57;;;10.70;99.90;;;;;;4990914;28;20022;-55
2023/01/12 13:45:22;;;;;;;5.00;2.10;;;10.70;99.90;;;;;;4990979;28;20497;-55
2023/01/12 13:47:50;;;;;;;5.03;1.10;;;10.70;99.90;;;;;;4990869;28;20026;-56